Hawi, Hawaii
Current Conditions -  °F | °C
As of 6:56 PM on Thursday 20 Nov 2014 (Local Time) from PHSF Reporting Station
Clear Clear  
Wind Chill: 58°   Ceiling: Unl
Heat Index: 58°   Visibility: 10mi
Dew Point: 44°   Wind: 15mph
Humidity: 59%   Direction: 140°SE
Pressure: 30.4"   Gusts: 24mph
Location:  20.24°N, 155.82°W
Report Text: PHSF 210456Z AUTO 14013G21KT 10SM CLR 14/06 A3040 RMK AO2 SLP182 T01420064 $
Loading
Personal Weather Stations






























Interactive Weather Map New forecast layout! Learn more

10-Day Weather Forecast

Advertisements
Track Severe Weather on mobile